Milwaukie, Oregon
Current Conditions -  °F | °C
As of 5:53 AM on Friday 31 Oct 2014 (Local Time) from KPDX Reporting Station
Moderate Rain Moderate Rain  
Wind Chill: 53°   Ceiling: 500
Heat Index: 53°   Visibility: 4mi
Dew Point: 53°   Wind: 8mph
Humidity: 100%   Direction: 300°WNW
Pressure: 29.68"   Gusts: NA
Location:  45.45°N, 122.64°W
Report Text: KPDX 311253Z 30007KT 4SM RA BR BKN005 OVC009 12/12 A2968 RMK AO2 SLP052 P0004 T01170117
Loading
Personal Weather Stations






























Interactive Weather Map
Tropical Storm Tracking
New forecast layout! Learn more

10-Day Weather Forecast

Advertisements
Track Severe Weather on mobile